createdAt,value
2018-08-03T00:01:12.566Z,21.40
2018-08-03T00:03:40.911Z,21.40
2018-08-03T00:06:09.295Z,21.40
2018-08-03T00:08:37.735Z,21.40
2018-08-03T00:11:06.086Z,21.40
2018-08-03T00:13:34.456Z,21.30
2018-08-03T00:16:02.842Z,21.10
2018-08-03T00:18:31.237Z,21.00
2018-08-03T00:20:59.598Z,20.80
2018-08-03T00:23:28.040Z,20.60
2018-08-03T00:25:56.409Z,20.50
2018-08-03T00:28:24.752Z,20.40
2018-08-03T00:30:53.217Z,20.20
2018-08-03T00:33:21.565Z,20.10
2018-08-03T00:35:49.948Z,20.00
2018-08-03T00:38:18.322Z,20.00
2018-08-03T00:40:46.641Z,19.90
2018-08-03T00:43:14.999Z,19.80
2018-08-03T00:45:43.362Z,19.80
2018-08-03T00:48:11.706Z,19.90
2018-08-03T00:50:40.064Z,19.90
2018-08-03T00:53:08.383Z,19.90
2018-08-03T00:55:36.775Z,20.10
2018-08-03T00:58:05.181Z,20.00
2018-08-03T01:00:33.558Z,20.10
2018-08-03T01:03:01.905Z,20.10
2018-08-03T01:05:30.235Z,20.20
2018-08-03T01:07:58.591Z,20.10
2018-08-03T01:10:26.929Z,20.00
2018-08-03T01:12:55.257Z,19.90
2018-08-03T01:20:19.742Z,19.40
2018-08-03T01:22:48.089Z,19.20
2018-08-03T01:25:16.518Z,19.00
2018-08-03T01:27:44.897Z,18.90
2018-08-03T01:30:13.287Z,18.80
2018-08-03T01:32:41.621Z,18.80
2018-08-03T01:35:10.020Z,18.70
2018-08-03T01:37:38.381Z,18.70
2018-08-03T01:40:07.096Z,18.80
2018-08-03T01:42:35.454Z,18.90
2018-08-03T01:45:03.795Z,18.80
2018-08-03T01:47:32.128Z,18.90
2018-08-03T01:50:00.520Z,18.90
2018-08-03T01:52:28.859Z,18.90
2018-08-03T01:54:57.161Z,19.00
2018-08-03T01:57:25.461Z,19.00
2018-08-03T01:59:54.021Z,19.00
2018-08-03T02:02:22.388Z,19.00
2018-08-03T02:04:50.761Z,18.90
2018-08-03T02:07:19.240Z,18.90
2018-08-03T02:09:47.620Z,18.80
2018-08-03T02:12:15.961Z,18.70
2018-08-03T02:14:44.338Z,18.60
2018-08-03T02:17:12.766Z,18.60
2018-08-03T02:19:41.123Z,18.50
2018-08-03T02:22:09.551Z,18.50
2018-08-03T02:24:37.934Z,18.40
2018-08-03T02:27:06.227Z,18.40
2018-08-03T02:29:34.608Z,18.30
2018-08-03T02:32:02.936Z,18.40
2018-08-03T02:34:31.300Z,18.50
2018-08-03T02:36:59.657Z,18.60
2018-08-03T02:39:27.973Z,18.80
2018-08-03T02:41:56.350Z,18.90
2018-08-03T02:44:24.697Z,19.00
2018-08-03T02:46:53.058Z,19.10
2018-08-03T02:49:21.486Z,19.10
2018-08-03T02:51:49.833Z,19.10
2018-08-03T02:54:18.198Z,18.90
2018-08-03T02:56:46.526Z,18.60
2018-08-03T02:59:14.873Z,18.40
2018-08-03T03:01:44.092Z,18.20
2018-08-03T03:04:12.431Z,18.00
2018-08-03T03:06:40.762Z,17.80
2018-08-03T03:09:10.649Z,17.80
2018-08-03T03:11:39.013Z,17.80
2018-08-03T03:14:07.595Z,17.90
2018-08-03T03:16:36.077Z,17.90
2018-08-03T03:19:04.543Z,17.90
2018-08-03T03:21:32.869Z,17.90
2018-08-03T03:24:01.242Z,17.90
2018-08-03T03:26:29.557Z,17.90
2018-08-03T03:28:57.886Z,17.90
2018-08-03T03:31:26.189Z,18.10
2018-08-03T03:33:54.566Z,18.20
2018-08-03T03:36:23.009Z,18.20
2018-08-03T03:38:51.361Z,18.20
2018-08-03T03:41:19.702Z,18.10
2018-08-03T03:43:48.031Z,18.00
2018-08-03T03:46:16.346Z,17.90
2018-08-03T03:48:44.688Z,17.80
2018-08-03T03:51:13.036Z,17.70
2018-08-03T03:53:41.361Z,17.70
2018-08-03T03:56:09.680Z,17.70
2018-08-03T03:58:38.009Z,17.70
2018-08-03T04:01:06.393Z,17.60
2018-08-03T04:03:34.749Z,17.60
2018-08-03T04:06:03.075Z,17.50
2018-08-03T04:08:31.493Z,17.50
2018-08-03T04:10:59.862Z,17.50
2018-08-03T04:13:28.166Z,17.40
2018-08-03T04:15:56.530Z,17.50
2018-08-03T04:18:24.849Z,17.50
2018-08-03T04:20:53.238Z,17.50
2018-08-03T04:23:21.551Z,17.50
2018-08-03T04:25:49.886Z,17.60
2018-08-03T04:28:18.219Z,17.60
2018-08-03T04:30:46.518Z,17.60
2018-08-03T04:33:14.935Z,17.50
2018-08-03T04:35:43.283Z,17.70
2018-08-03T04:38:11.594Z,17.60
2018-08-03T04:40:40.002Z,17.60
2018-08-03T04:43:08.353Z,17.60
2018-08-03T04:48:04.757Z,17.70
2018-08-03T04:50:33.112Z,17.80
2018-08-03T04:53:01.450Z,17.90
2018-08-03T04:55:29.756Z,18.00
2018-08-03T04:57:58.069Z,18.00
2018-08-03T05:00:26.474Z,18.10
2018-08-03T05:02:54.818Z,18.10
2018-08-03T05:05:23.173Z,18.20
2018-08-03T05:07:51.473Z,18.30
2018-08-03T05:10:19.801Z,18.40
2018-08-03T05:12:48.174Z,18.50
2018-08-03T05:15:16.458Z,18.60
2018-08-03T05:17:44.813Z,18.70
2018-08-03T05:20:13.167Z,18.90
2018-08-03T05:22:41.550Z,19.10
2018-08-03T05:25:09.885Z,19.20
2018-08-03T05:27:38.230Z,19.40
2018-08-03T05:30:08.073Z,19.50
2018-08-03T05:32:36.452Z,19.60
2018-08-03T05:35:05.510Z,19.70
2018-08-03T05:37:33.829Z,19.80
2018-08-03T05:40:02.167Z,20.00
2018-08-03T05:42:30.592Z,20.20
2018-08-03T05:44:58.930Z,20.40
2018-08-03T05:47:27.242Z,20.60
2018-08-03T05:49:55.591Z,20.90
2018-08-03T05:52:24.054Z,21.00
2018-08-03T05:54:52.344Z,21.20
2018-08-03T05:57:20.710Z,21.40
2018-08-03T05:59:49.159Z,21.70
2018-08-03T06:02:17.564Z,21.80
2018-08-03T06:04:45.888Z,21.80
2018-08-03T06:07:14.243Z,22.10
2018-08-03T06:09:42.584Z,22.40
2018-08-03T06:12:10.945Z,22.90
2018-08-03T06:14:39.359Z,23.10
2018-08-03T06:17:07.704Z,23.30
2018-08-03T06:19:36.026Z,23.60
2018-08-03T06:22:04.428Z,23.80
2018-08-03T06:24:33.361Z,24.20
2018-08-03T06:27:01.953Z,24.70
2018-08-03T06:29:30.952Z,25.10
2018-08-03T06:31:59.257Z,25.30
2018-08-03T06:34:27.570Z,25.30
2018-08-03T06:36:55.885Z,25.30
2018-08-03T06:39:24.224Z,25.60
2018-08-03T06:41:52.550Z,25.80
2018-08-03T06:44:20.932Z,26.30
2018-08-03T06:46:49.299Z,27.00
2018-08-03T06:49:17.679Z,26.90
2018-08-03T06:51:46.005Z,27.00
2018-08-03T06:54:14.342Z,27.10
2018-08-03T06:56:42.713Z,27.00
2018-08-03T06:59:11.033Z,27.40
2018-08-03T07:01:39.374Z,27.70
2018-08-03T07:04:07.869Z,28.40
2018-08-03T07:06:36.351Z,28.50
2018-08-03T07:09:07.829Z,28.50
2018-08-03T07:11:36.381Z,28.50
2018-08-03T07:14:04.768Z,28.90
2018-08-03T07:16:33.177Z,29.20
2018-08-03T07:19:01.525Z,29.20
2018-08-03T07:21:29.900Z,29.20
2018-08-03T07:23:58.281Z,29.50
2018-08-03T07:26:26.644Z,29.60
2018-08-03T07:28:55.015Z,29.90
2018-08-03T07:31:23.369Z,30.00
2018-08-03T07:33:51.850Z,30.10
2018-08-03T07:36:20.685Z,30.60
2018-08-03T07:38:49.302Z,31.20
2018-08-03T07:43:45.910Z,31.20
2018-08-03T07:46:14.325Z,31.10
2018-08-03T07:51:10.739Z,30.30
2018-08-03T07:53:39.071Z,30.70
2018-08-03T07:56:07.413Z,30.50
2018-08-03T07:58:35.888Z,30.80
2018-08-03T08:01:04.221Z,30.30
2018-08-03T08:03:32.595Z,30.30
2018-08-03T08:06:00.926Z,30.70
2018-08-03T08:08:29.357Z,31.10
2018-08-03T08:10:57.769Z,31.30
2018-08-03T08:13:26.245Z,31.20
2018-08-03T08:15:54.669Z,31.00
2018-08-03T08:18:23.039Z,31.00
2018-08-03T08:20:51.394Z,31.00
2018-08-03T08:23:19.796Z,30.60
2018-08-03T08:25:48.112Z,30.60
2018-08-03T08:28:16.514Z,30.90
2018-08-03T08:30:44.817Z,31.20
2018-08-03T08:33:13.145Z,31.20
2018-08-03T08:35:41.545Z,31.30
2018-08-03T08:38:09.947Z,31.80
2018-08-03T08:40:38.318Z,32.10
2018-08-03T08:43:06.729Z,32.00
2018-08-03T08:45:35.118Z,31.40
2018-08-03T08:48:03.463Z,31.40
2018-08-03T08:50:31.917Z,31.40
2018-08-03T08:53:01.830Z,31.50
2018-08-03T08:55:33.019Z,31.20
2018-08-03T08:58:09.030Z,31.30
2018-08-03T09:00:38.506Z,31.50
2018-08-03T09:03:13.214Z,31.10
2018-08-03T09:05:41.927Z,31.10
2018-08-03T09:08:10.383Z,31.20
2018-08-03T09:10:39.288Z,31.20
2018-08-03T09:13:08.336Z,31.00
2018-08-03T09:15:37.524Z,31.20
2018-08-03T09:18:06.035Z,31.40
2018-08-03T09:20:34.501Z,31.40
2018-08-03T09:23:04.596Z,31.50
2018-08-03T09:25:32.959Z,31.50
2018-08-03T09:28:01.580Z,31.80
2018-08-03T09:30:30.101Z,31.80
2018-08-03T09:32:58.948Z,31.60
2018-08-03T09:35:27.513Z,31.70
2018-08-03T09:37:56.133Z,31.80
2018-08-03T09:40:24.588Z,32.00
2018-08-03T09:42:53.002Z,31.90
2018-08-03T09:45:21.390Z,31.90
2018-08-03T09:50:22.208Z,32.10
2018-08-03T09:52:50.732Z,32.10
2018-08-03T09:55:19.247Z,32.50
2018-08-03T10:00:16.483Z,32.10
2018-08-03T10:02:45.688Z,32.00
2018-08-03T10:05:14.090Z,31.90
2018-08-03T10:07:42.431Z,32.10
2018-08-03T10:10:10.881Z,32.40
2018-08-03T10:12:39.295Z,32.60
2018-08-03T10:15:07.651Z,32.60
2018-08-03T10:17:36.057Z,32.70
2018-08-03T10:20:04.858Z,32.70
2018-08-03T10:22:33.256Z,32.70
2018-08-03T10:25:01.644Z,32.70
2018-08-03T10:27:30.150Z,32.60
2018-08-03T10:29:58.595Z,32.60
2018-08-03T10:32:26.975Z,32.80
2018-08-03T10:34:55.389Z,33.00
2018-08-03T10:37:23.821Z,33.10
2018-08-03T10:39:52.316Z,33.00
2018-08-03T10:42:20.769Z,33.00
2018-08-03T10:44:49.145Z,33.10
2018-08-03T10:47:17.737Z,33.30
2018-08-03T10:49:46.319Z,33.50
2018-08-03T10:52:14.785Z,33.40
2018-08-03T10:54:43.199Z,33.40
2018-08-03T10:57:11.654Z,33.40
2018-08-03T10:59:40.151Z,33.10
2018-08-03T11:02:09.232Z,33.30
2018-08-03T11:04:37.980Z,33.40
2018-08-03T11:07:06.495Z,33.20
2018-08-03T11:09:34.877Z,33.10
2018-08-03T11:12:03.640Z,32.50
2018-08-03T11:14:32.885Z,32.40
2018-08-03T11:17:01.642Z,32.30
2018-08-03T11:19:30.329Z,32.10
2018-08-03T11:21:58.837Z,31.90
2018-08-03T11:24:27.271Z,31.80
2018-08-03T11:26:55.677Z,31.50
2018-08-03T11:31:52.267Z,31.50
2018-08-03T11:34:20.659Z,32.00
2018-08-03T11:36:49.136Z,32.20
2018-08-03T11:39:17.532Z,31.80
2018-08-03T11:41:46.275Z,31.30
2018-08-03T11:44:14.816Z,31.20
2018-08-03T11:46:43.314Z,31.00
2018-08-03T11:51:39.822Z,31.00
2018-08-03T11:54:08.255Z,31.00
2018-08-03T11:56:36.651Z,31.00
2018-08-03T11:59:05.028Z,30.90
2018-08-03T12:01:33.560Z,31.00
2018-08-03T12:04:01.889Z,30.80
2018-08-03T12:06:30.336Z,30.80
2018-08-03T12:08:58.796Z,31.00
2018-08-03T12:11:27.137Z,31.30
2018-08-03T12:13:55.556Z,31.80
2018-08-03T12:16:23.958Z,32.50
2018-08-03T12:18:52.408Z,33.20
2018-08-03T12:21:20.811Z,33.40
2018-08-03T12:23:49.262Z,33.60
2018-08-03T12:26:17.698Z,33.90
2018-08-03T12:28:46.174Z,33.90
2018-08-03T12:31:14.732Z,33.50
2018-08-03T12:33:43.119Z,33.60
2018-08-03T12:36:11.640Z,34.10
2018-08-03T12:38:40.033Z,34.60
2018-08-03T12:41:08.403Z,35.30
2018-08-03T12:43:36.796Z,35.70
2018-08-03T12:46:05.179Z,36.20
2018-08-03T12:48:33.537Z,36.40
2018-08-03T12:51:01.881Z,36.20
2018-08-03T12:53:30.296Z,36.70
2018-08-03T12:55:58.689Z,36.80
2018-08-03T12:58:27.046Z,37.40
2018-08-03T13:00:55.474Z,36.90
2018-08-03T13:03:23.844Z,36.70
2018-08-03T13:05:52.223Z,37.10
2018-08-03T13:08:20.786Z,37.90
2018-08-03T13:10:49.012Z,38.30
2018-08-03T13:13:17.445Z,37.70
2018-08-03T13:15:45.784Z,37.50
2018-08-03T13:18:14.219Z,37.30
2018-08-03T13:20:42.627Z,37.40
2018-08-03T13:23:11.148Z,38.20
2018-08-03T13:25:39.553Z,38.90
2018-08-03T13:28:07.904Z,38.70
2018-08-03T13:30:36.265Z,37.90
2018-08-03T13:33:04.704Z,37.40
2018-08-03T13:35:33.041Z,37.60
2018-08-03T13:38:01.414Z,36.30
2018-08-03T13:40:29.816Z,34.90
2018-08-03T13:42:58.171Z,34.20
2018-08-03T13:45:26.557Z,34.10
2018-08-03T13:47:54.895Z,35.00
2018-08-03T13:50:23.317Z,36.60
2018-08-03T13:52:51.613Z,36.90
2018-08-03T13:55:20.045Z,38.10
2018-08-03T13:57:48.476Z,38.70
2018-08-03T14:00:16.810Z,39.10
2018-08-03T14:02:45.165Z,39.70
2018-08-03T14:05:13.580Z,40.00
2018-08-03T14:07:41.934Z,40.60
2018-08-03T14:10:10.685Z,41.00
2018-08-03T14:12:39.210Z,41.50
2018-08-03T14:15:08.043Z,40.40
2018-08-03T14:17:36.467Z,39.80
2018-08-03T14:20:06.094Z,38.80
2018-08-03T14:22:34.434Z,37.80
2018-08-03T14:25:02.786Z,37.50
2018-08-03T14:27:31.141Z,38.10
2018-08-03T14:29:59.557Z,38.90
2018-08-03T14:32:27.893Z,39.30
2018-08-03T14:34:56.272Z,39.10
2018-08-03T14:37:24.688Z,38.40
2018-08-03T14:39:53.086Z,38.80
2018-08-03T14:42:21.483Z,39.20
2018-08-03T14:44:49.861Z,39.30
2018-08-03T14:47:18.241Z,39.90
2018-08-03T14:52:14.806Z,40.90
2018-08-03T14:54:43.170Z,40.60
2018-08-03T14:57:11.582Z,40.40
2018-08-03T14:59:39.958Z,40.60
2018-08-03T15:02:08.440Z,41.10
2018-08-03T15:04:36.801Z,41.60
2018-08-03T15:07:05.219Z,39.70
2018-08-03T15:09:33.634Z,37.10
2018-08-03T15:12:02.075Z,35.70
2018-08-03T15:14:30.429Z,34.60
2018-08-03T15:16:58.812Z,33.80
2018-08-03T15:19:27.208Z,33.80
2018-08-03T15:21:55.552Z,34.70
2018-08-03T15:24:23.936Z,35.50
2018-08-03T15:26:52.472Z,36.20
2018-08-03T15:29:20.865Z,36.90
2018-08-03T15:31:49.296Z,37.50
2018-08-03T15:34:17.746Z,37.50
2018-08-03T15:36:46.312Z,38.00
2018-08-03T15:39:14.669Z,38.30
2018-08-03T15:41:43.049Z,38.40
2018-08-03T15:44:11.445Z,38.70
2018-08-03T15:46:39.905Z,38.70
2018-08-03T15:49:08.340Z,38.80
2018-08-03T15:51:36.877Z,38.30
2018-08-03T15:54:05.230Z,38.50
2018-08-03T15:56:33.609Z,39.40
2018-08-03T15:59:02.077Z,40.00
2018-08-03T16:01:30.469Z,40.30
2018-08-03T16:03:58.823Z,40.60
2018-08-03T16:06:27.219Z,40.90
2018-08-03T16:08:55.603Z,41.20
2018-08-03T16:11:23.937Z,40.50
2018-08-03T16:13:52.285Z,40.30
2018-08-03T16:16:20.748Z,40.70
2018-08-03T16:18:49.192Z,41.00
2018-08-03T16:21:17.684Z,40.80
2018-08-03T16:23:46.057Z,39.50
2018-08-03T16:26:14.466Z,37.90
2018-08-03T16:28:42.899Z,38.10
2018-08-03T16:31:11.293Z,39.00
2018-08-03T16:33:39.688Z,39.30
2018-08-03T16:36:08.037Z,39.20
2018-08-03T16:41:05.080Z,40.10
2018-08-03T16:43:33.441Z,40.00
2018-08-03T16:46:01.877Z,40.40
2018-08-03T16:48:30.245Z,40.60
2018-08-03T16:50:58.580Z,40.10
2018-08-03T16:53:26.979Z,39.50
2018-08-03T16:55:55.327Z,39.10
2018-08-03T16:58:23.734Z,38.80
2018-08-03T17:00:52.077Z,38.30
2018-08-03T17:03:20.553Z,37.90
2018-08-03T17:05:48.895Z,37.50
2018-08-03T17:08:17.233Z,37.40
2018-08-03T17:10:45.569Z,37.50
2018-08-03T17:13:13.991Z,37.50
2018-08-03T17:15:42.365Z,37.40
2018-08-03T17:18:10.743Z,37.20
2018-08-03T17:20:39.138Z,36.70
2018-08-03T17:23:07.492Z,36.40
2018-08-03T17:25:35.821Z,35.90
2018-08-03T17:28:04.450Z,35.20
2018-08-03T17:30:32.766Z,34.60
2018-08-03T17:33:01.092Z,34.00
2018-08-03T17:35:29.481Z,33.40
2018-08-03T17:37:57.864Z,33.00
2018-08-03T17:40:26.249Z,32.80
2018-08-03T17:42:54.662Z,32.40
2018-08-03T17:45:22.968Z,32.00
2018-08-03T17:47:51.329Z,31.90
2018-08-03T17:52:47.802Z,29.90
2018-08-03T17:55:16.132Z,31.50
2018-08-03T17:57:44.502Z,31.50
2018-08-03T18:00:13.412Z,31.50
2018-08-03T18:02:41.762Z,31.50
2018-08-03T18:05:10.141Z,31.50
2018-08-03T18:07:38.481Z,31.30
2018-08-03T18:10:07.189Z,31.30
2018-08-03T18:12:35.537Z,31.20
2018-08-03T18:15:04.390Z,31.10
2018-08-03T18:17:32.762Z,31.00
2018-08-03T18:20:01.138Z,30.90
2018-08-03T18:22:29.485Z,30.90
2018-08-03T18:24:57.827Z,30.80
2018-08-03T18:27:26.194Z,30.70
2018-08-03T18:32:22.701Z,30.40
2018-08-03T18:34:51.045Z,30.20
2018-08-03T18:37:19.409Z,30.10
2018-08-03T18:39:47.779Z,29.90
2018-08-03T18:42:16.146Z,29.70
2018-08-03T18:44:44.484Z,29.60
2018-08-03T18:47:12.858Z,29.60
2018-08-03T18:49:41.249Z,29.60
2018-08-03T18:52:09.650Z,29.50
2018-08-03T18:54:38.028Z,29.50
2018-08-03T18:57:06.460Z,29.40
2018-08-03T18:59:34.930Z,29.30
2018-08-03T19:02:03.283Z,29.20
2018-08-03T19:04:31.664Z,29.10
2018-08-03T19:07:00.016Z,28.90
2018-08-03T19:09:28.360Z,28.70
2018-08-03T19:11:56.717Z,28.50
2018-08-03T19:14:25.053Z,28.40
2018-08-03T19:16:53.387Z,28.20
2018-08-03T19:19:21.805Z,28.10
2018-08-03T19:21:50.152Z,27.90
2018-08-03T19:24:18.518Z,27.70
2018-08-03T19:26:46.871Z,27.50
2018-08-03T19:29:15.248Z,27.40
2018-08-03T19:31:43.618Z,27.10
2018-08-03T19:34:12.033Z,27.00
2018-08-03T19:36:40.403Z,26.80
2018-08-03T19:39:10.120Z,26.70
2018-08-03T19:41:39.099Z,26.50
2018-08-03T19:44:07.521Z,26.40
2018-08-03T19:46:35.981Z,26.30
2018-08-03T19:49:04.363Z,26.20
2018-08-03T19:51:32.743Z,26.10
2018-08-03T19:54:01.107Z,26.10
2018-08-03T19:56:29.506Z,26.10
2018-08-03T19:58:57.907Z,26.00
2018-08-03T20:01:26.224Z,25.90
2018-08-03T20:03:54.584Z,25.80
2018-08-03T20:06:22.948Z,25.70
2018-08-03T20:08:51.293Z,25.50
2018-08-03T20:11:19.676Z,25.10
2018-08-03T20:13:48.198Z,25.00
2018-08-03T20:16:16.496Z,24.90
2018-08-03T20:18:44.879Z,25.00
2018-08-03T20:21:13.288Z,25.00
2018-08-03T20:23:41.651Z,24.90
2018-08-03T20:26:10.045Z,24.90
2018-08-03T20:28:38.466Z,24.90
2018-08-03T20:31:07.051Z,25.00
2018-08-03T20:33:35.409Z,25.00
2018-08-03T20:36:03.791Z,25.00
2018-08-03T20:38:32.182Z,24.90
2018-08-03T20:41:00.529Z,24.70
2018-08-03T20:43:28.939Z,24.60
2018-08-03T20:45:57.380Z,24.50
2018-08-03T20:48:25.757Z,24.40
2018-08-03T20:50:54.256Z,24.30
2018-08-03T20:53:22.644Z,24.20
2018-08-03T20:55:50.983Z,24.20
2018-08-03T20:58:19.373Z,24.10
2018-08-03T21:03:15.822Z,23.90
2018-08-03T21:05:44.192Z,23.80
2018-08-03T21:10:40.626Z,23.70
2018-08-03T21:13:08.992Z,23.70
2018-08-03T21:15:37.340Z,23.60
2018-08-03T21:18:05.721Z,23.60
2018-08-03T21:20:34.063Z,23.60
2018-08-03T21:23:02.490Z,23.50
2018-08-03T21:25:30.869Z,23.40
2018-08-03T21:27:59.242Z,23.40
2018-08-03T21:30:27.597Z,23.50
2018-08-03T21:32:55.871Z,23.50
2018-08-03T21:35:24.203Z,23.40
2018-08-03T21:42:48.788Z,23.20
2018-08-03T21:45:17.146Z,23.00
2018-08-03T21:47:45.533Z,23.00
2018-08-03T21:50:13.864Z,23.00
2018-08-03T21:52:42.225Z,23.00
2018-08-03T21:55:10.537Z,23.00
2018-08-03T21:57:38.933Z,23.00
2018-08-03T22:00:09.902Z,23.00
2018-08-03T22:02:38.256Z,23.00
2018-08-03T22:05:06.610Z,22.80
2018-08-03T22:07:34.980Z,22.90
2018-08-03T22:10:03.325Z,22.80
2018-08-03T22:12:31.724Z,22.80
2018-08-03T22:15:00.057Z,22.70
2018-08-03T22:17:28.603Z,22.70
2018-08-03T22:19:57.191Z,22.60
2018-08-03T22:22:25.531Z,22.50
2018-08-03T22:24:53.892Z,22.40
2018-08-03T22:27:22.246Z,22.40
2018-08-03T22:29:50.598Z,22.30
2018-08-03T22:32:18.965Z,22.30
2018-08-03T22:34:47.312Z,22.20
2018-08-03T22:37:15.692Z,22.20
2018-08-03T22:39:44.043Z,22.10
2018-08-03T22:42:12.429Z,22.00
2018-08-03T22:44:40.766Z,21.80
2018-08-03T22:47:09.121Z,21.70
2018-08-03T22:49:37.473Z,21.40
2018-08-03T22:52:05.797Z,21.30
2018-08-03T22:54:34.138Z,21.30
2018-08-03T22:57:02.512Z,21.30
2018-08-03T22:59:30.873Z,21.40
2018-08-03T23:01:59.274Z,21.40
2018-08-03T23:04:27.610Z,21.40
2018-08-03T23:06:55.945Z,21.30
2018-08-03T23:09:24.269Z,21.10
2018-08-03T23:11:52.567Z,21.00
2018-08-03T23:14:20.899Z,20.90
2018-08-03T23:16:49.227Z,20.70
2018-08-03T23:19:17.579Z,20.60
2018-08-03T23:21:45.917Z,20.60
2018-08-03T23:24:14.262Z,20.50
2018-08-03T23:26:42.645Z,20.60
2018-08-03T23:29:10.961Z,20.60
2018-08-03T23:31:39.295Z,20.50
2018-08-03T23:34:07.619Z,20.40
2018-08-03T23:36:35.930Z,20.40
2018-08-03T23:39:05.960Z,20.40
2018-08-03T23:41:34.328Z,20.30
2018-08-03T23:44:02.657Z,20.30
2018-08-03T23:46:30.992Z,20.40
2018-08-03T23:48:59.318Z,20.40
2018-08-03T23:51:27.751Z,20.40
2018-08-03T23:53:56.115Z,20.60
2018-08-03T23:56:24.429Z,20.60
2018-08-03T23:58:52.779Z,20.60
